createdAt,value
2023-05-11T00:00:24.064Z,506.00
2023-05-11T00:01:24.061Z,505.00
2023-05-11T00:02:24.233Z,504.00
2023-05-11T00:03:24.699Z,506.00
2023-05-11T00:04:24.111Z,507.00
2023-05-11T00:05:24.080Z,509.00
2023-05-11T00:06:24.077Z,510.00
2023-05-11T00:07:24.142Z,507.00
2023-05-11T00:08:24.208Z,509.00
2023-05-11T00:09:24.272Z,510.00
2023-05-11T00:10:24.339Z,513.00
2023-05-11T00:11:24.435Z,513.00
2023-05-11T00:12:24.467Z,509.00
2023-05-11T00:13:24.540Z,510.00
2023-05-11T00:14:24.608Z,512.00
2023-05-11T00:15:24.702Z,510.00
2023-05-11T00:16:24.781Z,509.00
2023-05-11T00:17:24.826Z,509.00
2023-05-11T00:18:24.874Z,509.00
2023-05-11T00:19:24.940Z,512.00
2023-05-11T00:20:25.008Z,513.00
2023-05-11T00:21:25.095Z,511.00
2023-05-11T00:22:25.128Z,511.00
2023-05-11T00:23:25.283Z,510.00
2023-05-11T00:24:25.359Z,509.00
2023-05-11T00:25:25.374Z,513.00
2023-05-11T00:26:25.411Z,512.00
2023-05-11T00:27:25.526Z,511.00
2023-05-11T00:28:25.564Z,509.00
2023-05-11T00:29:25.597Z,509.00
2023-05-11T00:30:25.678Z,509.00
2023-05-11T00:31:26.525Z,509.00
2023-05-11T00:32:25.771Z,510.00
2023-05-11T00:33:25.776Z,513.00
2023-05-11T00:34:25.731Z,512.00
2023-05-11T00:35:25.736Z,514.00
2023-05-11T00:36:25.730Z,513.00
2023-05-11T00:37:26.194Z,512.00
2023-05-11T00:38:25.770Z,513.00
2023-05-11T00:39:25.796Z,511.00
2023-05-11T00:40:25.749Z,511.00
2023-05-11T00:41:25.767Z,506.00
2023-05-11T00:42:25.732Z,502.00
2023-05-11T00:43:25.753Z,503.00
2023-05-11T00:44:25.728Z,500.00
2023-05-11T00:45:25.725Z,497.00
2023-05-11T00:46:25.754Z,498.00
2023-05-11T00:47:25.754Z,498.00
2023-05-11T00:48:25.725Z,500.00
2023-05-11T00:49:25.727Z,502.00
2023-05-11T00:50:25.723Z,505.00
2023-05-11T00:51:25.719Z,502.00
2023-05-11T00:52:25.745Z,503.00
2023-05-11T00:53:25.735Z,505.00
2023-05-11T00:54:25.736Z,504.00
2023-05-11T00:55:25.733Z,503.00
2023-05-11T00:56:25.814Z,504.00
2023-05-11T00:57:25.852Z,510.00
2023-05-11T00:58:25.858Z,508.00
2023-05-11T00:59:25.914Z,501.00
2023-05-11T01:00:25.881Z,506.00
2023-05-11T01:01:25.949Z,509.00
2023-05-11T01:02:26.047Z,507.00
2023-05-11T01:03:25.943Z,507.00
2023-05-11T01:04:25.945Z,505.00
2023-05-11T01:05:25.960Z,509.00
2023-05-11T01:06:25.974Z,510.00
2023-05-11T01:07:25.989Z,508.00
2023-05-11T01:08:25.991Z,507.00
2023-05-11T01:09:26.010Z,503.00
2023-05-11T01:10:26.053Z,503.00
2023-05-11T01:11:26.136Z,505.00
2023-05-11T01:12:26.060Z,505.00
2023-05-11T01:13:26.110Z,505.00
2023-05-11T01:14:26.109Z,496.00
2023-05-11T01:15:26.175Z,509.00
2023-05-11T01:16:26.152Z,506.00
2023-05-11T01:17:26.186Z,508.00
2023-05-11T01:18:26.235Z,489.00
2023-05-11T01:19:26.261Z,498.00
2023-05-11T01:20:26.286Z,499.00
2023-05-11T01:21:26.352Z,499.00
2023-05-11T01:22:26.384Z,500.00
2023-05-11T01:23:26.464Z,499.00
2023-05-11T01:24:26.518Z,498.00
2023-05-11T01:25:26.560Z,503.00
2023-05-11T01:26:26.638Z,518.00
2023-05-11T01:27:26.614Z,509.00
2023-05-11T01:28:26.674Z,509.00
2023-05-11T01:29:26.653Z,511.00
2023-05-11T01:30:26.684Z,511.00
2023-05-11T01:31:26.808Z,508.00
2023-05-11T01:32:26.841Z,507.00
2023-05-11T01:33:26.890Z,508.00
2023-05-11T01:34:26.910Z,509.00
2023-05-11T01:35:26.967Z,498.00
2023-05-11T01:36:26.994Z,499.00
2023-05-11T01:37:27.035Z,479.00
2023-05-11T01:38:27.102Z,505.00
2023-05-11T01:39:27.149Z,505.00
2023-05-11T01:40:27.125Z,513.00
2023-05-11T01:41:27.145Z,507.00
2023-05-11T01:42:27.160Z,510.00
2023-05-11T01:43:27.177Z,512.00
2023-05-11T01:44:27.187Z,509.00
2023-05-11T01:45:27.193Z,511.00
2023-05-11T01:46:27.282Z,511.00
2023-05-11T01:47:27.289Z,512.00
2023-05-11T01:48:27.220Z,508.00
2023-05-11T01:49:27.246Z,510.00
2023-05-11T01:50:27.231Z,510.00
2023-05-11T01:51:27.229Z,510.00
2023-05-11T01:52:27.255Z,510.00
2023-05-11T01:53:27.259Z,511.00
2023-05-11T01:54:27.749Z,513.00
2023-05-11T01:55:27.310Z,514.00
2023-05-11T01:56:27.360Z,510.00
2023-05-11T01:57:27.360Z,512.00
2023-05-11T01:58:27.367Z,511.00
2023-05-11T01:59:27.506Z,510.00
2023-05-11T02:00:27.433Z,509.00
2023-05-11T02:01:27.546Z,510.00
2023-05-11T02:02:27.538Z,511.00
2023-05-11T02:03:27.612Z,511.00
2023-05-11T02:04:27.490Z,511.00
2023-05-11T02:05:28.363Z,510.00
2023-05-11T02:06:27.500Z,507.00
2023-05-11T02:07:27.501Z,509.00
2023-05-11T02:08:27.509Z,507.00
2023-05-11T02:09:27.525Z,506.00
2023-05-11T02:10:27.543Z,507.00
2023-05-11T02:11:27.550Z,512.00
2023-05-11T02:12:27.576Z,514.00
2023-05-11T02:13:27.601Z,514.00
2023-05-11T02:14:27.601Z,513.00
2023-05-11T02:15:27.614Z,510.00
2023-05-11T02:16:27.652Z,507.00
2023-05-11T02:17:27.663Z,504.00
2023-05-11T02:18:27.680Z,502.00
2023-05-11T02:19:27.712Z,500.00
2023-05-11T02:20:27.706Z,500.00
2023-05-11T02:21:27.742Z,498.00
2023-05-11T02:22:27.763Z,503.00
2023-05-11T02:23:27.890Z,506.00
2023-05-11T02:24:27.795Z,505.00
2023-05-11T02:25:27.809Z,504.00
2023-05-11T02:26:27.831Z,501.00
2023-05-11T02:27:27.844Z,499.00
2023-05-11T02:28:27.864Z,500.00
2023-05-11T02:29:27.903Z,502.00
2023-05-11T02:30:27.895Z,501.00
2023-05-11T02:31:27.982Z,500.00
2023-05-11T02:32:29.068Z,499.00
2023-05-11T02:33:27.938Z,501.00
2023-05-11T02:34:28.028Z,502.00
2023-05-11T02:35:27.977Z,504.00
2023-05-11T02:36:27.969Z,504.00
2023-05-11T02:37:28.030Z,504.00
2023-05-11T02:38:28.001Z,505.00
2023-05-11T02:39:28.023Z,509.00
2023-05-11T02:40:28.044Z,513.00
2023-05-11T02:41:28.086Z,513.00
2023-05-11T02:42:28.163Z,511.00
2023-05-11T02:43:28.128Z,510.00
2023-05-11T02:44:28.180Z,507.00
2023-05-11T02:45:28.182Z,508.00
2023-05-11T02:46:28.294Z,508.00
2023-05-11T02:47:28.388Z,508.00
2023-05-11T02:48:28.337Z,507.00
2023-05-11T02:49:28.421Z,510.00
2023-05-11T02:50:28.432Z,508.00
2023-05-11T02:51:28.505Z,505.00
2023-05-11T02:52:28.518Z,503.00
2023-05-11T02:53:28.578Z,502.00
2023-05-11T02:54:28.641Z,502.00
2023-05-11T02:55:28.676Z,503.00
2023-05-11T02:56:28.722Z,503.00
2023-05-11T02:57:28.772Z,502.00
2023-05-11T02:58:28.866Z,505.00
2023-05-11T02:59:28.943Z,506.00
2023-05-11T03:00:28.995Z,507.00
2023-05-11T03:01:30.561Z,508.00
2023-05-11T03:02:29.832Z,511.00
2023-05-11T03:03:29.134Z,514.00
2023-05-11T03:04:28.997Z,516.00
2023-05-11T03:05:28.980Z,516.00
2023-05-11T03:06:29.045Z,515.00
2023-05-11T03:07:29.032Z,517.00
2023-05-11T03:08:29.011Z,517.00
2023-05-11T03:09:29.040Z,515.00
2023-05-11T03:10:29.031Z,512.00
2023-05-11T03:11:29.031Z,511.00
2023-05-11T03:12:29.046Z,512.00
2023-05-11T03:13:29.061Z,515.00
2023-05-11T03:14:29.063Z,512.00
2023-05-11T03:15:29.079Z,511.00
2023-05-11T03:16:30.099Z,509.00
2023-05-11T03:17:29.154Z,510.00
2023-05-11T03:18:29.153Z,512.00
2023-05-11T03:19:29.238Z,511.00
2023-05-11T03:20:29.260Z,512.00
2023-05-11T03:21:29.317Z,513.00
2023-05-11T03:22:29.380Z,511.00
2023-05-11T03:23:29.468Z,510.00
2023-05-11T03:24:29.577Z,512.00
2023-05-11T03:25:29.571Z,509.00
2023-05-11T03:26:29.626Z,506.00
2023-05-11T03:27:29.720Z,509.00
2023-05-11T03:28:29.817Z,508.00
2023-05-11T03:29:29.892Z,508.00
2023-05-11T03:30:29.985Z,509.00
2023-05-11T03:31:30.093Z,508.00
2023-05-11T03:32:30.159Z,510.00
2023-05-11T03:33:30.213Z,510.00
2023-05-11T03:34:30.256Z,514.00
2023-05-11T03:35:30.324Z,513.00
2023-05-11T03:36:30.368Z,514.00
2023-05-11T03:37:30.458Z,515.00
2023-05-11T03:38:30.566Z,516.00
2023-05-11T03:39:30.641Z,518.00
2023-05-11T03:40:30.687Z,520.00
2023-05-11T03:41:30.756Z,519.00
2023-05-11T03:42:30.877Z,519.00
2023-05-11T03:43:30.932Z,514.00
2023-05-11T03:44:31.043Z,512.00
2023-05-11T03:45:31.098Z,514.00
2023-05-11T03:46:31.282Z,514.00
2023-05-11T03:47:31.380Z,514.00
2023-05-11T03:48:31.357Z,511.00
2023-05-11T03:49:31.458Z,512.00
2023-05-11T03:50:31.500Z,504.00
2023-05-11T03:51:31.578Z,513.00
2023-05-11T03:52:31.612Z,514.00
2023-05-11T03:53:31.715Z,516.00
2023-05-11T03:54:31.801Z,515.00
2023-05-11T03:55:31.890Z,515.00
2023-05-11T03:56:31.951Z,516.00
2023-05-11T03:57:32.017Z,519.00
2023-05-11T03:58:32.091Z,518.00
2023-05-11T03:59:32.186Z,517.00
2023-05-11T04:00:32.250Z,515.00
2023-05-11T04:01:32.332Z,516.00
2023-05-11T04:02:32.528Z,519.00
2023-05-11T04:03:32.632Z,516.00
2023-05-11T04:04:32.635Z,517.00
2023-05-11T04:05:32.656Z,516.00
2023-05-11T04:06:32.690Z,516.00
2023-05-11T04:07:32.716Z,515.00
2023-05-11T04:08:32.755Z,514.00
2023-05-11T04:09:32.789Z,514.00
2023-05-11T04:10:32.819Z,510.00
2023-05-11T04:11:32.900Z,509.00
2023-05-11T04:12:32.882Z,510.00
2023-05-11T04:13:32.912Z,515.00
2023-05-11T04:14:32.996Z,516.00
2023-05-11T04:15:32.992Z,518.00
2023-05-11T04:16:33.194Z,518.00
2023-05-11T04:17:33.111Z,517.00
2023-05-11T04:18:33.181Z,518.00
2023-05-11T04:19:33.243Z,517.00
2023-05-11T04:20:33.296Z,515.00
2023-05-11T04:21:33.332Z,515.00
2023-05-11T04:22:33.425Z,518.00
2023-05-11T04:23:33.470Z,516.00
2023-05-11T04:24:33.603Z,489.00
2023-05-11T04:25:33.639Z,513.00
2023-05-11T04:26:33.717Z,517.00
2023-05-11T04:27:33.836Z,517.00
2023-05-11T04:28:33.901Z,517.00
2023-05-11T04:29:34.001Z,516.00
2023-05-11T04:30:34.038Z,515.00
2023-05-11T04:31:34.180Z,514.00
2023-05-11T04:32:34.250Z,516.00
2023-05-11T04:33:34.274Z,513.00
2023-05-11T04:34:34.348Z,509.00
2023-05-11T04:35:34.378Z,516.00
2023-05-11T04:36:34.448Z,519.00
2023-05-11T04:37:34.519Z,517.00
2023-05-11T04:38:34.594Z,516.00
2023-05-11T04:39:34.682Z,516.00
2023-05-11T04:40:35.137Z,518.00
2023-05-11T04:41:34.847Z,515.00
2023-05-11T04:42:34.935Z,513.00
2023-05-11T04:43:35.040Z,514.00
2023-05-11T04:44:35.097Z,514.00
2023-05-11T04:45:35.170Z,514.00
2023-05-11T04:46:35.348Z,514.00
2023-05-11T04:47:35.346Z,511.00
2023-05-11T04:48:35.434Z,514.00
2023-05-11T04:49:35.514Z,515.00
2023-05-11T04:50:35.582Z,516.00
2023-05-11T04:51:35.659Z,517.00
2023-05-11T04:52:35.746Z,518.00
2023-05-11T04:53:35.788Z,518.00
2023-05-11T04:54:35.869Z,520.00
2023-05-11T04:55:35.960Z,519.00
2023-05-11T04:56:36.035Z,519.00
2023-05-11T04:57:36.083Z,518.00
2023-05-11T04:58:36.106Z,517.00
2023-05-11T04:59:36.217Z,519.00
2023-05-11T05:00:36.201Z,518.00
2023-05-11T05:01:36.263Z,515.00
2023-05-11T05:02:36.324Z,514.00
2023-05-11T05:03:36.357Z,515.00
2023-05-11T05:04:36.602Z,516.00
2023-05-11T05:05:36.389Z,513.00
2023-05-11T05:06:36.411Z,512.00
2023-05-11T05:07:36.471Z,514.00
2023-05-11T05:09:35.542Z,514.00
2023-05-11T05:10:36.585Z,513.00
2023-05-11T05:11:36.602Z,517.00
2023-05-11T05:12:36.644Z,515.00
2023-05-11T05:13:36.640Z,515.00
2023-05-11T05:14:36.666Z,511.00
2023-05-11T05:15:36.792Z,511.00
2023-05-11T05:16:36.708Z,513.00
2023-05-11T05:17:36.760Z,513.00
2023-05-11T05:18:36.809Z,513.00
2023-05-11T05:19:36.751Z,512.00
2023-05-11T05:20:36.809Z,512.00
2023-05-11T05:21:36.793Z,511.00
2023-05-11T05:22:36.864Z,511.00
2023-05-11T05:23:36.819Z,511.00
2023-05-11T05:24:36.867Z,511.00
2023-05-11T05:25:37.304Z,508.00
2023-05-11T05:26:36.878Z,508.00
2023-05-11T05:27:37.334Z,506.00
2023-05-11T05:28:36.916Z,509.00
2023-05-11T05:29:36.939Z,504.00
2023-05-11T05:30:37.009Z,505.00
2023-05-11T05:31:37.000Z,506.00
2023-05-11T05:32:37.054Z,510.00
2023-05-11T05:33:37.029Z,511.00
2023-05-11T05:34:37.094Z,511.00
2023-05-11T05:35:37.309Z,512.00
2023-05-11T05:36:38.078Z,514.00
2023-05-11T05:37:37.079Z,514.00
2023-05-11T05:38:37.323Z,514.00
2023-05-11T05:39:37.172Z,515.00
2023-05-11T05:40:38.231Z,512.00
2023-05-11T05:41:37.289Z,515.00
2023-05-11T05:42:37.327Z,516.00
2023-05-11T05:43:37.357Z,511.00
2023-05-11T05:44:37.830Z,511.00
2023-05-11T05:45:37.826Z,511.00
2023-05-11T05:46:37.640Z,510.00
2023-05-11T05:47:37.691Z,513.00
2023-05-11T05:48:38.826Z,515.00
2023-05-11T05:49:41.315Z,513.00
2023-05-11T05:50:41.077Z,516.00
2023-05-11T05:51:37.801Z,516.00
2023-05-11T05:52:40.867Z,516.00
2023-05-11T05:53:38.758Z,512.00
2023-05-11T05:55:45.333Z,514.00
2023-05-11T05:56:37.911Z,516.00
2023-05-11T05:57:45.290Z,514.00
2023-05-11T05:58:37.892Z,512.00
2023-05-11T05:59:45.292Z,510.00
2023-05-11T06:00:39.060Z,511.00
2023-05-11T06:01:45.201Z,511.00
2023-05-11T06:03:41.649Z,510.00
2023-05-11T06:05:41.101Z,513.00
2023-05-11T06:08:08.319Z,512.00
2023-05-11T06:08:37.950Z,510.00
2023-05-11T06:10:45.361Z,509.00
2023-05-11T06:11:45.405Z,509.00
2023-05-11T06:12:41.199Z,510.00
2023-05-11T06:13:38.018Z,509.00
2023-05-11T06:14:38.095Z,511.00
2023-05-11T06:15:39.118Z,510.00
2023-05-11T06:16:38.224Z,510.00
2023-05-11T06:17:38.158Z,510.00
2023-05-11T06:18:38.243Z,508.00
2023-05-11T06:19:38.224Z,509.00
2023-05-11T11:49:35.182Z,496.00
2023-05-11T11:50:36.149Z,496.00
2023-05-11T11:51:36.161Z,496.00
2023-05-11T11:52:36.508Z,496.00
2023-05-11T11:53:36.159Z,496.00
2023-05-11T11:54:36.154Z,494.00
2023-05-11T11:55:36.149Z,496.00
2023-05-11T11:56:36.171Z,498.00
2023-05-11T11:57:36.565Z,499.00
2023-05-11T11:58:36.156Z,502.00
2023-05-11T11:59:36.157Z,503.00
2023-05-11T12:00:36.161Z,503.00
2023-05-11T12:01:36.163Z,503.00
2023-05-11T12:02:36.568Z,503.00
2023-05-11T12:03:36.359Z,501.00
2023-05-11T12:04:36.198Z,499.00
2023-05-11T12:05:36.197Z,499.00
2023-05-11T12:06:36.193Z,498.00
2023-05-11T12:07:36.506Z,497.00
2023-05-11T12:08:36.187Z,495.00
2023-05-11T12:09:36.213Z,494.00
2023-05-11T12:10:36.183Z,495.00
2023-05-11T12:11:36.174Z,491.00
2023-05-11T12:12:36.540Z,493.00
2023-05-11T12:13:36.176Z,492.00
2023-05-11T12:14:36.175Z,494.00
2023-05-11T12:15:36.210Z,497.00
2023-05-11T12:16:36.269Z,495.00
2023-05-11T12:17:36.527Z,495.00
2023-05-11T12:18:36.380Z,493.00
2023-05-11T12:19:36.302Z,495.00
2023-05-11T12:20:36.308Z,497.00
2023-05-11T12:21:36.372Z,495.00
2023-05-11T12:22:36.359Z,496.00
2023-05-11T12:23:36.516Z,497.00
2023-05-11T12:24:36.432Z,499.00
2023-05-11T12:25:36.488Z,500.00
2023-05-11T12:26:36.577Z,502.00
2023-05-11T12:27:36.660Z,500.00
2023-05-11T12:28:36.692Z,499.00
2023-05-11T12:29:36.742Z,501.00
2023-05-11T12:30:36.772Z,500.00
2023-05-11T12:31:36.864Z,502.00
2023-05-11T12:32:36.908Z,502.00
2023-05-11T12:33:36.902Z,502.00
2023-05-11T12:34:36.972Z,503.00
2023-05-11T12:35:37.094Z,501.00
2023-05-11T12:36:37.123Z,502.00
2023-05-11T12:37:37.256Z,502.00
2023-05-11T12:38:37.513Z,504.00
2023-05-11T12:39:37.216Z,503.00
2023-05-11T12:40:37.281Z,502.00
2023-05-11T12:41:37.292Z,505.00
2023-05-11T12:42:37.380Z,505.00
2023-05-11T12:43:37.751Z,498.00
2023-05-11T12:44:37.537Z,496.00
2023-05-11T12:45:37.672Z,497.00
2023-05-11T12:46:37.761Z,499.00
2023-05-11T12:47:37.901Z,502.00
2023-05-11T12:48:37.888Z,510.00
2023-05-11T12:49:37.831Z,505.00
2023-05-11T12:50:37.803Z,509.00
2023-05-11T12:51:38.027Z,509.00
2023-05-11T12:52:37.883Z,506.00
2023-05-11T12:53:37.971Z,503.00
2023-05-11T12:54:38.038Z,504.00
2023-05-11T12:55:38.081Z,504.00
2023-05-11T12:56:38.148Z,504.00
2023-05-11T12:57:38.537Z,503.00
2023-05-11T12:58:38.276Z,500.00
2023-05-11T12:59:38.378Z,505.00
2023-05-11T13:00:39.442Z,508.00
2023-05-11T13:01:38.542Z,510.00
2023-05-11T13:02:39.077Z,507.00
2023-05-11T13:03:39.126Z,508.00
2023-05-11T13:04:38.682Z,509.00
2023-05-11T13:05:38.764Z,507.00
2023-05-11T13:06:38.839Z,509.00
2023-05-11T13:07:39.026Z,507.00
2023-05-11T13:08:38.971Z,507.00
2023-05-11T13:09:39.045Z,503.00
2023-05-11T13:10:39.079Z,507.00
2023-05-11T13:11:39.131Z,505.00
2023-05-11T13:12:39.208Z,501.00
2023-05-11T13:13:39.305Z,500.00
2023-05-11T13:14:39.823Z,503.00
2023-05-11T13:15:39.426Z,501.00
2023-05-11T13:16:39.443Z,502.00
2023-05-11T13:17:39.545Z,501.00
2023-05-11T13:18:39.543Z,498.00
2023-05-11T13:19:39.523Z,498.00
2023-05-11T13:20:39.553Z,497.00
2023-05-11T13:21:39.694Z,500.00
2023-05-11T13:22:39.699Z,498.00
2023-05-11T13:23:39.713Z,496.00
2023-05-11T13:24:39.749Z,498.00
2023-05-11T13:25:39.851Z,491.00
2023-05-11T13:26:39.888Z,496.00
2023-05-11T13:27:40.009Z,500.00
2023-05-11T13:28:40.020Z,502.00
2023-05-11T13:29:40.082Z,501.00
2023-05-11T13:30:40.560Z,501.00
2023-05-11T13:31:40.255Z,498.00
2023-05-11T13:32:40.301Z,496.00
2023-05-11T13:33:40.528Z,494.00
2023-05-11T13:34:40.352Z,498.00
2023-05-11T13:35:40.338Z,499.00
2023-05-11T13:36:40.410Z,496.00
2023-05-11T13:37:40.450Z,496.00
2023-05-11T13:38:40.531Z,496.00
2023-05-11T13:39:40.573Z,498.00
2023-05-11T13:40:40.623Z,498.00
2023-05-11T13:41:40.738Z,499.00
2023-05-11T13:42:40.755Z,500.00
2023-05-11T13:43:40.832Z,502.00
2023-05-11T13:44:40.902Z,503.00
2023-05-11T13:45:40.945Z,505.00
2023-05-11T13:46:41.071Z,500.00
2023-05-11T13:47:43.170Z,501.00
2023-05-11T13:48:41.089Z,501.00
2023-05-11T13:49:41.151Z,501.00
2023-05-11T13:50:41.114Z,500.00
2023-05-11T13:51:41.145Z,496.00
2023-05-11T13:52:41.156Z,494.00
2023-05-11T13:53:41.190Z,491.00
2023-05-11T13:54:41.219Z,493.00
2023-05-11T13:55:41.258Z,499.00
2023-05-11T13:56:41.333Z,500.00
2023-05-11T13:57:41.368Z,502.00
2023-05-11T13:58:41.315Z,499.00
2023-05-11T13:59:41.328Z,501.00
2023-05-11T14:00:41.374Z,501.00
2023-05-11T14:01:41.374Z,498.00
2023-05-11T14:02:41.453Z,499.00
2023-05-11T14:03:41.460Z,498.00
2023-05-11T14:04:41.405Z,499.00
2023-05-11T14:05:41.420Z,497.00
2023-05-11T14:06:41.423Z,498.00
2023-05-11T14:07:49.188Z,500.00
2023-05-11T14:08:41.520Z,496.00
2023-05-11T14:09:41.552Z,494.00
2023-05-11T14:10:42.054Z,495.00
2023-05-11T14:11:41.600Z,493.00
2023-05-11T14:12:41.615Z,493.00
2023-05-11T14:13:42.076Z,492.00
2023-05-11T14:14:41.667Z,493.00
2023-05-11T14:15:41.690Z,492.00
2023-05-11T14:16:41.697Z,494.00
2023-05-11T14:17:41.812Z,474.00
2023-05-11T14:18:42.166Z,492.00
2023-05-11T14:19:41.780Z,492.00
2023-05-11T14:20:41.964Z,497.00
2023-05-11T14:21:41.755Z,495.00
2023-05-11T14:22:41.812Z,500.00
2023-05-11T14:23:49.982Z,499.00
2023-05-11T14:24:42.057Z,496.00
2023-05-11T14:25:41.793Z,496.00
2023-05-11T14:26:41.800Z,496.00
2023-05-11T14:27:42.059Z,499.00
2023-05-11T14:28:41.871Z,496.00
2023-05-11T14:29:44.201Z,496.00
2023-05-11T14:30:41.968Z,495.00
2023-05-11T14:31:41.946Z,495.00
2023-05-11T14:32:41.998Z,493.00
2023-05-11T14:33:41.984Z,493.00
2023-05-11T14:34:42.003Z,493.00
2023-05-11T14:35:42.037Z,496.00
2023-05-11T14:36:42.042Z,537.00
2023-05-11T14:37:42.559Z,515.00
2023-05-11T14:38:42.095Z,507.00
2023-05-11T14:39:42.140Z,503.00
2023-05-11T14:40:42.114Z,508.00
2023-05-11T14:41:42.146Z,462.00
2023-05-11T14:42:42.171Z,498.00
2023-05-11T14:43:42.173Z,499.00
2023-05-11T14:44:42.177Z,505.00
2023-05-11T14:45:42.233Z,507.00
2023-05-11T14:46:42.374Z,515.00
2023-05-11T14:47:42.327Z,494.00
2023-05-11T14:48:42.288Z,501.00
2023-05-11T14:49:42.319Z,501.00
2023-05-11T14:50:42.350Z,504.00
2023-05-11T14:51:42.395Z,503.00
2023-05-11T14:52:42.427Z,502.00
2023-05-11T14:53:42.945Z,507.00
2023-05-11T14:54:43.056Z,508.00
2023-05-11T14:55:42.522Z,507.00
2023-05-11T14:56:42.548Z,505.00
2023-05-11T14:57:42.566Z,488.00
2023-05-11T14:58:42.599Z,504.00
2023-05-11T14:59:55.226Z,507.00
2023-05-11T15:00:42.649Z,506.00
2023-05-11T15:01:43.179Z,502.00
2023-05-11T15:02:42.756Z,496.00
2023-05-11T15:03:42.760Z,498.00
2023-05-11T15:04:42.762Z,502.00
2023-05-11T15:05:42.802Z,502.00
2023-05-11T15:06:42.833Z,492.00
2023-05-11T15:07:42.869Z,499.00
2023-05-11T15:08:42.909Z,502.00
2023-05-11T15:09:42.931Z,501.00
2023-05-11T15:10:42.960Z,501.00
2023-05-11T15:11:43.012Z,500.00
2023-05-11T15:12:43.077Z,493.00
2023-05-11T15:13:43.113Z,494.00
2023-05-11T15:14:43.151Z,502.00
2023-05-11T15:15:43.182Z,497.00
2023-05-11T15:18:12.625Z,486.00
2023-05-11T15:19:03.008Z,490.00
2023-05-11T15:20:02.962Z,489.00
2023-05-11T15:21:02.981Z,482.00
2023-05-11T15:22:02.953Z,483.00
2023-05-11T15:23:02.958Z,486.00
2023-05-11T15:24:02.962Z,488.00
2023-05-11T15:25:02.944Z,491.00
2023-05-11T15:26:02.937Z,491.00
2023-05-11T15:27:02.914Z,488.00
2023-05-11T15:28:02.915Z,490.00
2023-05-11T15:29:03.342Z,490.00
2023-05-11T15:30:02.925Z,491.00
2023-05-11T15:31:02.899Z,493.00
2023-05-11T15:32:03.046Z,490.00
2023-05-11T15:33:02.944Z,491.00
2023-05-11T15:34:03.036Z,494.00
2023-05-11T15:35:02.945Z,489.00
2023-05-11T15:36:02.956Z,487.00
2023-05-11T15:37:02.937Z,489.00
2023-05-11T15:38:02.961Z,492.00
2023-05-11T15:39:02.976Z,489.00
2023-05-11T15:40:02.991Z,489.00
2023-05-11T15:41:03.059Z,488.00
2023-05-11T15:42:03.132Z,489.00
2023-05-11T15:43:03.144Z,488.00
2023-05-11T15:44:03.192Z,484.00
2023-05-11T15:45:03.206Z,489.00
2023-05-11T15:46:03.265Z,487.00
2023-05-11T15:47:03.228Z,485.00
2023-05-11T15:48:03.271Z,481.00
2023-05-11T15:49:03.253Z,484.00
2023-05-11T15:50:03.277Z,482.00
2023-05-11T15:51:03.283Z,484.00
2023-05-11T15:52:03.321Z,479.00
2023-05-11T15:53:03.328Z,477.00
2023-05-11T15:54:03.842Z,483.00
2023-05-11T15:55:03.397Z,486.00
2023-05-11T15:56:03.454Z,486.00
2023-05-11T15:57:03.507Z,489.00
2023-05-11T15:58:03.528Z,486.00
2023-05-11T15:59:03.578Z,488.00
2023-05-11T16:00:03.646Z,489.00
2023-05-11T16:01:03.768Z,491.00
2023-05-11T16:02:03.721Z,495.00
2023-05-11T16:03:03.882Z,465.00
2023-05-11T16:04:03.844Z,492.00
2023-05-11T16:05:03.874Z,493.00
2023-05-11T16:06:03.975Z,487.00
2023-05-11T16:07:03.968Z,490.00
2023-05-11T16:08:04.031Z,489.00
2023-05-11T16:09:04.056Z,490.00
2023-05-11T16:10:04.128Z,492.00
2023-05-11T16:11:04.201Z,496.00
2023-05-11T16:12:04.216Z,498.00
2023-05-11T16:13:04.248Z,500.00
2023-05-11T16:14:04.258Z,495.00
2023-05-11T16:15:04.315Z,495.00
2023-05-11T16:16:04.384Z,497.00
2023-05-11T16:17:04.719Z,497.00
2023-05-11T16:18:05.347Z,492.00
2023-05-11T16:19:04.585Z,498.00
2023-05-11T16:20:04.553Z,503.00
2023-05-11T16:21:04.607Z,500.00
2023-05-11T16:22:04.749Z,499.00
2023-05-11T16:23:04.742Z,491.00
2023-05-11T16:24:04.759Z,491.00
2023-05-11T16:25:04.767Z,491.00
2023-05-11T16:26:04.793Z,495.00
2023-05-11T16:27:04.821Z,495.00
2023-05-11T16:28:04.860Z,492.00
2023-05-11T16:29:04.860Z,490.00
2023-05-11T16:30:17.991Z,490.00
2023-05-11T16:31:04.950Z,493.00
2023-05-11T16:32:04.852Z,489.00
2023-05-11T16:33:04.867Z,491.00
2023-05-11T16:34:04.855Z,494.00
2023-05-11T16:35:04.840Z,488.00
2023-05-11T16:36:04.820Z,492.00
2023-05-11T16:37:04.834Z,482.00
2023-05-11T16:38:04.844Z,490.00
2023-05-11T16:39:04.808Z,494.00
2023-05-11T16:40:04.810Z,471.00
2023-05-11T16:41:04.801Z,509.00
2023-05-11T16:42:04.781Z,495.00
2023-05-11T16:43:04.810Z,478.00
2023-05-11T16:44:04.753Z,498.00
2023-05-11T16:45:04.763Z,499.00
2023-05-11T16:46:04.771Z,500.00
2023-05-11T16:47:04.814Z,504.00
2023-05-11T16:48:04.740Z,510.00
2023-05-11T16:49:04.740Z,500.00
2023-05-11T16:50:04.702Z,500.00
2023-05-11T16:51:04.692Z,495.00
2023-05-11T16:52:04.694Z,490.00
2023-05-11T16:53:04.692Z,494.00
2023-05-11T16:54:04.845Z,485.00
2023-05-11T16:55:04.686Z,491.00
2023-05-11T16:56:04.679Z,496.00
2023-05-11T16:57:04.684Z,492.00
2023-05-11T16:58:04.685Z,445.00
2023-05-11T16:59:04.681Z,481.00
2023-05-11T17:00:04.688Z,494.00
2023-05-11T17:01:04.655Z,496.00
2023-05-11T17:02:04.746Z,498.00
2023-05-11T17:03:04.792Z,490.00
2023-05-11T17:04:04.733Z,493.00
2023-05-11T17:05:04.763Z,486.00
2023-05-11T17:06:04.811Z,509.00
2023-05-11T17:07:04.864Z,502.00
2023-05-11T17:08:04.895Z,503.00
2023-05-11T17:09:04.955Z,499.00
2023-05-11T17:10:05.006Z,504.00
2023-05-11T17:11:05.033Z,499.00
2023-05-11T17:12:05.088Z,498.00
2023-05-11T17:13:05.121Z,504.00
2023-05-11T17:14:05.173Z,498.00
2023-05-11T17:15:05.157Z,506.00
2023-05-11T17:16:05.187Z,504.00
2023-05-11T17:17:05.179Z,502.00
2023-05-11T17:18:05.305Z,504.00
2023-05-11T17:19:05.356Z,508.00
2023-05-11T17:20:05.363Z,503.00
2023-05-11T17:21:05.400Z,505.00
2023-05-11T17:22:05.431Z,522.00
2023-05-11T17:23:05.457Z,486.00
2023-05-11T17:24:05.509Z,491.00
2023-05-11T17:25:05.496Z,489.00
2023-05-11T17:26:05.542Z,493.00
2023-05-11T17:27:05.535Z,483.00
2023-05-11T17:28:05.565Z,491.00
2023-05-11T17:29:05.588Z,492.00
2023-05-11T17:30:05.634Z,492.00
2023-05-11T17:31:05.734Z,494.00
2023-05-11T17:32:05.998Z,498.00
2023-05-11T17:33:06.185Z,494.00
2023-05-11T17:34:05.913Z,497.00
2023-05-11T17:35:05.784Z,489.00
2023-05-11T17:36:05.820Z,492.00
2023-05-11T17:37:05.827Z,486.00
2023-05-11T17:38:05.863Z,488.00
2023-05-11T17:39:05.874Z,493.00
2023-05-11T17:40:05.888Z,484.00
2023-05-11T17:41:05.896Z,483.00
2023-05-11T17:42:05.986Z,489.00
2023-05-11T17:43:05.955Z,494.00
2023-05-11T17:44:06.025Z,494.00
2023-05-11T17:45:06.052Z,493.00
2023-05-11T17:46:06.192Z,494.00
2023-05-11T17:47:06.154Z,498.00
2023-05-11T17:48:06.217Z,498.00
2023-05-11T17:49:06.241Z,500.00
2023-05-11T17:50:06.282Z,498.00
2023-05-11T17:51:06.310Z,492.00
2023-05-11T17:52:06.355Z,492.00
2023-05-11T17:53:06.372Z,491.00
2023-05-11T17:54:06.424Z,497.00
2023-05-11T17:55:06.412Z,496.00
2023-05-11T17:56:06.419Z,498.00
2023-05-11T17:57:06.460Z,498.00
2023-05-11T17:58:06.523Z,498.00
2023-05-11T17:59:06.549Z,502.00
2023-05-11T18:00:06.601Z,498.00
2023-05-11T18:01:06.670Z,495.00
2023-05-11T18:02:06.651Z,500.00
2023-05-11T18:03:06.790Z,501.00
2023-05-11T18:04:06.792Z,502.00
2023-05-11T18:05:06.758Z,500.00